Time;durP1;ratioP1;P1;durP2;ratioP2;P2;SDS_P1;SDS_P2;PMS_P1;PMS_P2;Temp;Humidity;BMP_temperature;BMP_pressure;BME280_temperature;BME280_humidity;BME280_pressure;Samples;Min_cycle;Max_cycle;Signal;HPM_P1;HPM_P2
2022/05/20 00:00:05;;;;;;;27.13;22.20;;;;;;;;;;4972593;28;20932;-69
2022/05/20 00:02:31;;;;;;;29.00;21.95;;;;;;;;;;4978186;28;22377;-69
2022/05/20 00:04:57;;;;;;;31.08;20.95;;;;;;;;;;4978268;28;20040;-68
2022/05/20 00:07:22;;;;;;;30.27;21.20;;;;;;;;;;4969051;28;20045;-70
2022/05/20 00:09:48;;;;;;;30.02;23.70;;;;;;;;;;4977417;28;20145;-70
2022/05/20 00:12:13;;;;;;;31.58;23.88;;;;;;;;;;4971737;28;20112;-70
2022/05/20 00:14:38;;;;;;;31.27;25.50;;;;;;;;;;4969030;28;21008;-69
2022/05/20 00:17:05;;;;;;;27.33;22.13;;;;;;;;;;4965886;28;20112;-70
2022/05/20 00:19:30;;;;;;;34.78;26.33;;;;;;;;;;4947412;28;20042;-69
2022/05/20 00:21:56;;;;;;;30.55;25.08;;;;;;;;;;4969596;28;20124;-69
2022/05/20 00:24:21;;;;;;;28.77;23.27;;;;;;;;;;4974539;28;20575;-69
2022/05/20 00:26:47;;;;;;;33.28;25.60;;;;;;;;;;4987916;28;20117;-68
2022/05/20 00:29:14;;;;;;;33.50;23.65;;;;;;;;;;4968417;28;20034;-70
2022/05/20 00:31:40;;;;;;;37.92;28.10;;;;;;;;;;4971240;28;21837;-70
2022/05/20 00:34:05;;;;;;;32.50;28.58;;;;;;;;;;4960109;28;20896;-69
2022/05/20 00:36:30;;;;;;;32.85;25.05;;;;;;;;;;4971028;28;20045;-69
2022/05/20 00:38:56;;;;;;;31.02;26.02;;;;;;;;;;4970457;28;20058;-69
2022/05/20 00:41:22;;;;;;;29.88;23.77;;;;;;;;;;4972176;28;20747;-69
2022/05/20 00:43:49;;;;;;;30.40;23.90;;;;;;;;;;4970173;28;20042;-69
2022/05/20 00:46:18;;;;;;;35.85;25.90;;;;;;;;;;4970231;28;20049;-69
2022/05/20 00:48:44;;;;;;;31.92;26.38;;;;;;;;;;4972891;28;20120;-69
2022/05/20 00:51:12;;;;;;;31.30;26.38;;;;;;;;;;4972715;28;21024;-69
2022/05/20 00:53:49;;;;;;;34.65;26.77;;;;;;;;;;4970016;28;20045;-69
2022/05/20 00:56:18;;;;;;;30.55;23.42;;;;;;;;;;4973943;28;20038;-69
2022/05/20 00:58:44;;;;;;;35.05;27.40;;;;;;;;;;4973864;28;20526;-69
2022/05/20 01:01:09;;;;;;;38.22;27.73;;;;;;;;;;4971630;28;20030;-69
2022/05/20 01:03:36;;;;;;;34.38;26.45;;;;;;;;;;4972898;28;20649;-69
2022/05/20 01:06:02;;;;;;;36.05;25.60;;;;;;;;;;4971656;28;20033;-69
2022/05/20 01:08:29;;;;;;;28.73;24.35;;;;;;;;;;4971746;28;20971;-69
2022/05/20 01:10:54;;;;;;;39.88;28.38;;;;;;;;;;4971717;28;20034;-69
2022/05/20 01:13:20;;;;;;;34.22;27.42;;;;;;;;;;4973229;28;20033;-69
2022/05/20 01:15:49;;;;;;;32.53;26.75;;;;;;;;;;4970600;28;20041;-69
2022/05/20 01:18:15;;;;;;;37.88;30.00;;;;;;;;;;4969945;28;20044;-69
2022/05/20 01:20:43;;;;;;;39.38;30.85;;;;;;;;;;4964866;28;20038;-69
2022/05/20 01:23:12;;;;;;;39.25;29.67;;;;;;;;;;4971621;28;20155;-69
2022/05/20 01:25:42;;;;;;;33.65;27.77;;;;;;;;;;4969020;28;21027;-68
2022/05/20 01:28:08;;;;;;;36.63;28.27;;;;;;;;;;4968226;28;20081;-68
2022/05/20 01:30:39;;;;;;;32.58;24.17;;;;;;;;;;4971247;28;20153;-68
2022/05/20 01:33:05;;;;;;;35.45;23.50;;;;;;;;;;4973430;28;20069;-70
2022/05/20 01:35:41;;;;;;;32.53;24.17;;;;;;;;;;4940937;28;20049;-68
2022/05/20 01:38:07;;;;;;;34.38;27.90;;;;;;;;;;4973185;28;20061;-68
2022/05/20 01:40:37;;;;;;;41.88;30.10;;;;;;;;;;4973921;28;22356;-68
2022/05/20 01:43:09;;;;;;;40.95;31.77;;;;;;;;;;4972404;28;20030;-68
2022/05/20 01:45:39;;;;;;;47.97;33.85;;;;;;;;;;4975438;28;20030;-68
2022/05/20 01:48:08;;;;;;;42.80;31.98;;;;;;;;;;4977782;28;20831;-70
2022/05/20 01:50:39;;;;;;;44.47;33.92;;;;;;;;;;4972966;28;22268;-68
2022/05/20 01:53:16;;;;;;;41.28;28.50;;;;;;;;;;4996090;28;20032;-68
2022/05/20 01:55:54;;;;;;;39.70;27.45;;;;;;;;;;5003086;28;20056;-68
2022/05/20 01:58:26;;;;;;;37.88;25.13;;;;;;;;;;4991282;28;20046;-68
2022/05/20 02:00:55;;;;;;;38.15;28.80;;;;;;;;;;4991053;28;20045;-68
2022/05/20 02:03:24;;;;;;;40.28;31.65;;;;;;;;;;4993061;28;20033;-68
2022/05/20 02:05:55;;;;;;;54.20;36.33;;;;;;;;;;4996146;28;20127;-68
2022/05/20 02:08:40;;;;;;;47.23;36.57;;;;;;;;;;4986632;28;20072;-70
2022/05/20 02:11:08;;;;;;;52.58;36.08;;;;;;;;;;4990442;28;20323;-70
2022/05/20 02:13:36;;;;;;;48.03;37.40;;;;;;;;;;4992142;28;20139;-69
2022/05/20 02:16:27;;;;;;;51.47;37.10;;;;;;;;;;4994787;28;20037;-69
2022/05/20 02:18:58;;;;;;;49.03;36.30;;;;;;;;;;4976844;28;20041;-70
2022/05/20 02:21:25;;;;;;;54.25;36.78;;;;;;;;;;4981598;28;20044;-70
2022/05/20 02:23:56;;;;;;;49.60;37.97;;;;;;;;;;4989285;28;20958;-70
2022/05/20 02:26:23;;;;;;;53.25;38.40;;;;;;;;;;4987804;28;20039;-70
2022/05/20 02:28:53;;;;;;;54.83;38.10;;;;;;;;;;5001219;28;22045;-70
2022/05/20 02:31:22;;;;;;;55.72;43.80;;;;;;;;;;4990812;28;20029;-70
2022/05/20 02:33:50;;;;;;;56.60;43.95;;;;;;;;;;4993955;28;22244;-69
2022/05/20 02:36:21;;;;;;;68.95;51.67;;;;;;;;;;4995827;28;20863;-69
2022/05/20 02:38:47;;;;;;;72.18;51.70;;;;;;;;;;4971673;28;20118;-68
2022/05/20 02:41:14;;;;;;;70.03;53.90;;;;;;;;;;4971825;28;20034;-68
2022/05/20 02:43:40;;;;;;;79.28;59.17;;;;;;;;;;4961628;28;20069;-68
2022/05/20 02:46:05;;;;;;;84.40;59.92;;;;;;;;;;4971315;28;20557;-68
2022/05/20 02:48:31;;;;;;;92.70;60.67;;;;;;;;;;4984176;28;20060;-69
2022/05/20 02:50:58;;;;;;;80.63;56.65;;;;;;;;;;4971438;28;20366;-69
2022/05/20 02:53:23;;;;;;;84.32;57.55;;;;;;;;;;4964016;28;20091;-69
2022/05/20 02:55:48;;;;;;;79.63;55.80;;;;;;;;;;4971066;28;20029;-70
2022/05/20 03:06:26;;;;;;;107.45;69.07;;;;;;;;;;4973664;28;20720;-69
2022/05/20 03:08:52;;;;;;;104.55;65.78;;;;;;;;;;4970655;28;20046;-70
2022/05/20 03:11:17;;;;;;;100.38;65.38;;;;;;;;;;4974731;28;20057;-69
2022/05/20 03:13:43;;;;;;;91.95;61.17;;;;;;;;;;4982865;28;20558;-69
2022/05/20 03:16:08;;;;;;;107.18;68.22;;;;;;;;;;4970120;28;20033;-69
2022/05/20 03:18:36;;;;;;;99.57;67.28;;;;;;;;;;4971243;28;21034;-68
2022/05/20 03:21:01;;;;;;;105.65;68.22;;;;;;;;;;4952522;28;20111;-69
2022/05/20 03:23:27;;;;;;;105.22;66.40;;;;;;;;;;4958705;28;20072;-69
2022/05/20 03:25:52;;;;;;;101.53;65.45;;;;;;;;;;4970352;28;20757;-69
2022/05/20 03:28:20;;;;;;;92.07;60.17;;;;;;;;;;4955491;28;20092;-70
2022/05/20 03:30:46;;;;;;;94.65;60.35;;;;;;;;;;4971938;28;20569;-67
2022/05/20 03:33:11;;;;;;;92.75;61.80;;;;;;;;;;4957973;28;20038;-69
2022/05/20 03:35:39;;;;;;;91.53;59.40;;;;;;;;;;4973083;28;20267;-68
2022/05/20 03:38:05;;;;;;;101.72;64.43;;;;;;;;;;4965558;28;20084;-69
2022/05/20 03:40:30;;;;;;;110.40;67.68;;;;;;;;;;4964470;28;20030;-68
2022/05/20 03:42:57;;;;;;;96.82;63.15;;;;;;;;;;4974132;28;20314;-68
2022/05/20 03:45:23;;;;;;;107.45;65.32;;;;;;;;;;4971568;28;20036;-69
2022/05/20 03:47:50;;;;;;;88.38;58.35;;;;;;;;;;4970213;28;20868;-69
2022/05/20 03:50:18;;;;;;;97.47;60.85;;;;;;;;;;4971385;28;20133;-69
2022/05/20 03:52:44;;;;;;;91.40;59.90;;;;;;;;;;4968473;28;20057;-69
2022/05/20 03:55:10;;;;;;;90.28;58.80;;;;;;;;;;4966168;28;20033;-69
2022/05/20 03:57:35;;;;;;;90.68;58.88;;;;;;;;;;4970660;28;20394;-68
2022/05/20 04:00:00;;;;;;;85.43;56.45;;;;;;;;;;4970603;28;20160;-69
2022/05/20 04:02:26;;;;;;;80.95;52.95;;;;;;;;;;4973903;28;20026;-69
2022/05/20 04:04:55;;;;;;;95.03;57.03;;;;;;;;;;4972621;28;20029;-69
2022/05/20 04:07:22;;;;;;;90.07;55.67;;;;;;;;;;4970524;28;20037;-69
2022/05/20 04:09:48;;;;;;;84.68;54.83;;;;;;;;;;4976929;28;20927;-68
2022/05/20 04:12:28;;;;;;;85.65;53.60;;;;;;;;;;4972117;28;20064;-68
2022/05/20 04:14:56;;;;;;;94.63;55.97;;;;;;;;;;4973856;28;21065;-68
2022/05/20 04:17:22;;;;;;;94.15;56.83;;;;;;;;;;4968104;28;20044;-69
2022/05/20 04:19:47;;;;;;;83.97;56.13;;;;;;;;;;4970251;28;20038;-68
2022/05/20 04:22:17;;;;;;;86.20;55.35;;;;;;;;;;4972215;28;20997;-68
2022/05/20 04:24:42;;;;;;;87.32;54.55;;;;;;;;;;4959787;28;20893;-68
2022/05/20 04:27:08;;;;;;;86.95;56.08;;;;;;;;;;4972490;28;20068;-68
2022/05/20 04:29:34;;;;;;;95.93;59.08;;;;;;;;;;4977013;28;20050;-68
2022/05/20 04:31:59;;;;;;;92.15;58.03;;;;;;;;;;4970400;28;20038;-69
2022/05/20 04:34:25;;;;;;;94.82;60.13;;;;;;;;;;4970801;28;20048;-68
2022/05/20 04:36:51;;;;;;;94.97;60.38;;;;;;;;;;4972184;28;20033;-68
2022/05/20 04:39:16;;;;;;;97.32;63.05;;;;;;;;;;4965437;28;20033;-67
2022/05/20 04:47:14;;;;;;;82.20;53.35;;;;;;;;;;4971326;28;20049;-73
2022/05/20 04:49:41;;;;;;;80.28;51.08;;;;;;;;;;4949964;28;20073;-73
2022/05/20 04:52:11;;;;;;;85.65;52.53;;;;;;;;;;4971935;28;20064;-73
2022/05/20 04:54:53;;;;;;;84.68;52.38;;;;;;;;;;4959860;28;20049;-73
2022/05/20 04:57:24;;;;;;;83.38;52.13;;;;;;;;;;4947597;28;20063;-72
2022/05/20 04:59:51;;;;;;;85.28;52.20;;;;;;;;;;4960576;28;20640;-74
2022/05/20 05:02:17;;;;;;;79.82;51.40;;;;;;;;;;4971234;28;20030;-73
2022/05/20 05:04:42;;;;;;;68.30;45.03;;;;;;;;;;4967958;28;20083;-73
2022/05/20 05:07:09;;;;;;;64.03;43.65;;;;;;;;;;4969616;28;20038;-72
2022/05/20 05:09:35;;;;;;;62.30;40.15;;;;;;;;;;4970189;28;20045;-73
2022/05/20 05:12:00;;;;;;;43.65;31.52;;;;;;;;;;4972086;28;20120;-72
2022/05/20 05:14:27;;;;;;;40.00;27.98;;;;;;;;;;4988699;28;20033;-72
2022/05/20 05:16:52;;;;;;;32.92;24.80;;;;;;;;;;4984348;28;20099;-74
2022/05/20 05:19:17;;;;;;;34.58;24.42;;;;;;;;;;5003590;28;20198;-74
2022/05/20 05:21:43;;;;;;;31.30;24.55;;;;;;;;;;4990785;28;20581;-73
2022/05/20 05:24:10;;;;;;;35.10;25.10;;;;;;;;;;4974244;28;20470;-73
2022/05/20 05:26:40;;;;;;;38.75;24.63;;;;;;;;;;4986191;28;20110;-72
2022/05/20 05:29:05;;;;;;;32.22;21.90;;;;;;;;;;4986387;28;20041;-73
2022/05/20 05:31:31;;;;;;;34.40;22.70;;;;;;;;;;4981008;28;20030;-73
2022/05/20 05:33:57;;;;;;;31.13;21.33;;;;;;;;;;4988489;28;20076;-72
2022/05/20 05:36:22;;;;;;;33.80;20.75;;;;;;;;;;4988894;28;20116;-73
2022/05/20 05:38:47;;;;;;;31.13;19.38;;;;;;;;;;4993551;28;20037;-73
2022/05/20 05:41:13;;;;;;;31.35;19.75;;;;;;;;;;4972310;28;20025;-73
2022/05/20 05:43:41;;;;;;;27.75;19.70;;;;;;;;;;4967571;28;20061;-73
2022/05/20 05:46:07;;;;;;;31.27;20.25;;;;;;;;;;4968505;28;20576;-73
2022/05/20 05:48:32;;;;;;;32.20;20.20;;;;;;;;;;4966137;28;20063;-73
2022/05/20 05:50:58;;;;;;;29.80;19.67;;;;;;;;;;4970159;28;21002;-72
2022/05/20 05:53:27;;;;;;;28.65;16.45;;;;;;;;;;4958619;28;20068;-73
2022/05/20 05:55:59;;;;;;;24.48;13.85;;;;;;;;;;4962325;28;20042;-71
2022/05/20 05:58:24;;;;;;;20.00;13.02;;;;;;;;;;4967543;28;20120;-73
2022/05/20 06:00:50;;;;;;;25.55;15.82;;;;;;;;;;4969269;28;20144;-75
2022/05/20 06:03:16;;;;;;;25.90;16.15;;;;;;;;;;4963775;28;21969;-74
2022/05/20 06:05:41;;;;;;;25.58;15.70;;;;;;;;;;4965465;28;20060;-74
2022/05/20 06:08:07;;;;;;;25.75;12.25;;;;;;;;;;4976166;28;20034;-74
2022/05/20 06:10:33;;;;;;;15.57;9.32;;;;;;;;;;4961254;28;20029;-73
2022/05/20 06:12:59;;;;;;;13.80;7.80;;;;;;;;;;4968824;28;20038;-74
2022/05/20 06:15:28;;;;;;;12.38;6.38;;;;;;;;;;4965069;28;20638;-74
2022/05/20 06:17:54;;;;;;;10.45;5.38;;;;;;;;;;4987980;28;20108;-73
2022/05/20 06:20:20;;;;;;;11.50;5.95;;;;;;;;;;4965568;28;20285;-74
2022/05/20 06:22:45;;;;;;;10.00;5.95;;;;;;;;;;4953824;28;20091;-74
2022/05/20 06:25:11;;;;;;;9.15;5.00;;;;;;;;;;4966956;28;20514;-73
2022/05/20 06:27:40;;;;;;;13.23;5.85;;;;;;;;;;4968278;28;20049;-73
2022/05/20 06:30:08;;;;;;;13.23;6.10;;;;;;;;;;4967689;28;20069;-73
2022/05/20 06:32:33;;;;;;;9.63;5.85;;;;;;;;;;4963655;28;20053;-73
2022/05/20 06:40:45;;;;;;;9.65;4.68;;;;;;;;;;4990382;28;20033;-71
2022/05/20 06:43:14;;;;;;;11.02;5.18;;;;;;;;;;4986003;28;20037;-69
2022/05/20 06:45:40;;;;;;;9.65;5.03;;;;;;;;;;5001865;28;20060;-71
2022/05/20 06:48:06;;;;;;;8.40;4.15;;;;;;;;;;4981711;28;20034;-70
2022/05/20 06:50:35;;;;;;;11.40;5.70;;;;;;;;;;4966926;28;20029;-70
2022/05/20 06:53:01;;;;;;;11.93;5.65;;;;;;;;;;4968614;28;21122;-72
2022/05/20 06:55:29;;;;;;;11.57;5.45;;;;;;;;;;4969215;28;20026;-72
2022/05/20 06:57:57;;;;;;;12.93;5.35;;;;;;;;;;4963453;28;20392;-72
2022/05/20 07:00:25;;;;;;;11.80;5.03;;;;;;;;;;4967913;28;20072;-72
2022/05/20 07:02:50;;;;;;;11.55;5.18;;;;;;;;;;4966997;28;20141;-72
2022/05/20 07:05:15;;;;;;;10.45;5.63;;;;;;;;;;4966158;28;20038;-71
2022/05/20 07:07:41;;;;;;;10.57;5.53;;;;;;;;;;4966795;28;20584;-71
2022/05/20 07:10:07;;;;;;;8.50;4.93;;;;;;;;;;4966629;28;20099;-72
2022/05/20 07:12:33;;;;;;;9.25;5.00;;;;;;;;;;4958593;28;22328;-73
2022/05/20 07:15:00;;;;;;;9.95;5.82;;;;;;;;;;4980613;28;20037;-75
2022/05/20 07:17:25;;;;;;;10.55;5.75;;;;;;;;;;4987338;28;20040;-71
2022/05/20 07:19:51;;;;;;;8.75;5.70;;;;;;;;;;4960688;28;20161;-74
2022/05/20 07:22:19;;;;;;;9.77;6.05;;;;;;;;;;4967000;28;20709;-72
2022/05/20 07:24:44;;;;;;;10.32;6.32;;;;;;;;;;4967542;28;20124;-73
2022/05/20 07:27:11;;;;;;;10.45;6.15;;;;;;;;;;4966465;28;20049;-71
2022/05/20 07:29:38;;;;;;;13.07;7.35;;;;;;;;;;4967126;28;20096;-71
2022/05/20 07:32:03;;;;;;;12.70;7.45;;;;;;;;;;4968324;28;20796;-72
2022/05/20 07:34:30;;;;;;;14.18;8.30;;;;;;;;;;4962649;28;20133;-70
2022/05/20 07:36:55;;;;;;;14.75;8.38;;;;;;;;;;4962809;28;20189;-72
2022/05/20 07:39:20;;;;;;;13.18;7.35;;;;;;;;;;4963964;28;20099;-71
2022/05/20 07:41:47;;;;;;;12.85;8.23;;;;;;;;;;4935968;28;20445;-72
2022/05/20 07:44:12;;;;;;;10.95;8.02;;;;;;;;;;4985047;28;20513;-72
2022/05/20 07:46:37;;;;;;;8.98;7.30;;;;;;;;;;4978501;28;20430;-73
2022/05/20 07:49:03;;;;;;;12.45;7.65;;;;;;;;;;4987964;28;20140;-71
2022/05/20 07:51:29;;;;;;;11.75;7.28;;;;;;;;;;4986360;28;20045;-71
2022/05/20 07:54:00;;;;;;;12.77;7.00;;;;;;;;;;4986946;28;20525;-73
2022/05/20 07:56:36;;;;;;;13.20;8.05;;;;;;;;;;4998025;28;20043;-71
2022/05/20 07:59:02;;;;;;;16.23;8.52;;;;;;;;;;4969488;28;20532;-71
2022/05/20 08:01:29;;;;;;;14.55;8.05;;;;;;;;;;4968223;28;20184;-71
2022/05/20 08:06:42;;;;;;;10.90;6.55;;;;;;;;;;4967400;28;21109;-73
2022/05/20 08:09:09;;;;;;;10.40;6.53;;;;;;;;;;4953921;28;20049;-72
2022/05/20 08:11:35;;;;;;;10.75;6.43;;;;;;;;;;4984110;28;20977;-73
2022/05/20 08:14:03;;;;;;;11.43;6.25;;;;;;;;;;4965535;28;20903;-72
2022/05/20 08:16:32;;;;;;;8.90;5.80;;;;;;;;;;4943401;28;20041;-73
2022/05/20 08:18:57;;;;;;;10.75;6.13;;;;;;;;;;4980035;28;20128;-76
2022/05/20 08:21:22;;;;;;;9.65;5.95;;;;;;;;;;4973173;28;20038;-73
2022/05/20 08:23:48;;;;;;;13.15;8.10;;;;;;;;;;4974022;28;20038;-73
2022/05/20 08:26:18;;;;;;;9.68;5.15;;;;;;;;;;4972702;28;20143;-73
2022/05/20 08:28:44;;;;;;;9.10;4.40;;;;;;;;;;4993215;28;20049;-71
2022/05/20 08:31:09;;;;;;;7.47;3.90;;;;;;;;;;4993848;28;21012;-72
2022/05/20 08:33:34;;;;;;;8.38;3.60;;;;;;;;;;4962936;28;20038;-71
2022/05/20 08:36:01;;;;;;;9.25;4.00;;;;;;;;;;4973663;28;20045;-75
2022/05/20 08:38:26;;;;;;;8.75;4.38;;;;;;;;;;4981381;28;20048;-76
2022/05/20 08:40:52;;;;;;;8.70;3.55;;;;;;;;;;4972078;28;20840;-74
2022/05/20 08:43:20;;;;;;;8.68;4.32;;;;;;;;;;4973584;28;20042;-74
2022/05/20 08:45:48;;;;;;;9.65;4.78;;;;;;;;;;4970555;28;20270;-75
2022/05/20 08:48:13;;;;;;;11.07;5.40;;;;;;;;;;4993412;28;20121;-75
2022/05/20 08:50:49;;;;;;;9.27;5.00;;;;;;;;;;4993622;28;20040;-75
2022/05/20 08:53:28;;;;;;;14.45;6.32;;;;;;;;;;4993686;28;20716;-74
2022/05/20 08:55:57;;;;;;;18.75;8.80;;;;;;;;;;5006576;28;20024;-74
2022/05/20 08:58:23;;;;;;;11.57;6.70;;;;;;;;;;4991153;28;20525;-75
2022/05/20 09:00:49;;;;;;;14.38;7.18;;;;;;;;;;4992431;28;20041;-75
2022/05/20 09:03:17;;;;;;;14.25;6.18;;;;;;;;;;4990636;28;20032;-75
2022/05/20 09:05:45;;;;;;;10.68;6.65;;;;;;;;;;4993453;28;20115;-75
2022/05/20 09:08:20;;;;;;;10.52;6.60;;;;;;;;;;4988547;28;20041;-75
2022/05/20 09:10:46;;;;;;;10.93;5.68;;;;;;;;;;4998783;28;20198;-75
2022/05/20 09:13:20;;;;;;;8.98;5.03;;;;;;;;;;4981889;28;20164;-76
2022/05/20 09:15:59;;;;;;;10.30;5.43;;;;;;;;;;4988629;28;20144;-75
2022/05/20 09:18:27;;;;;;;8.35;5.28;;;;;;;;;;4989914;28;20156;-76
2022/05/20 09:20:53;;;;;;;9.30;4.80;;;;;;;;;;4993491;28;20108;-74
2022/05/20 09:23:21;;;;;;;8.27;5.07;;;;;;;;;;4987546;28;20044;-72
2022/05/20 09:26:00;;;;;;;11.55;5.47;;;;;;;;;;4991878;28;20101;-74
2022/05/20 09:28:29;;;;;;;10.20;4.75;;;;;;;;;;4992947;28;22562;-74
2022/05/20 09:31:01;;;;;;;8.77;5.20;;;;;;;;;;4989524;28;20568;-74
2022/05/20 09:33:28;;;;;;;8.70;4.88;;;;;;;;;;4988999;28;20033;-74
2022/05/20 09:35:56;;;;;;;9.20;5.40;;;;;;;;;;4991535;28;20135;-74
2022/05/20 09:38:32;;;;;;;10.18;5.75;;;;;;;;;;4993479;28;20021;-77
2022/05/20 09:40:58;;;;;;;9.07;4.85;;;;;;;;;;4990971;28;20029;-76
2022/05/20 09:43:31;;;;;;;13.80;5.82;;;;;;;;;;4957753;28;20582;-75
2022/05/20 09:45:57;;;;;;;9.55;5.00;;;;;;;;;;4996990;28;20203;-76
2022/05/20 09:48:31;;;;;;;10.30;5.28;;;;;;;;;;4975209;28;20026;-76
2022/05/20 09:51:02;;;;;;;10.02;4.85;;;;;;;;;;5002767;28;20588;-75
2022/05/20 09:53:39;;;;;;;10.73;4.70;;;;;;;;;;5005816;28;20025;-76
2022/05/20 09:56:23;;;;;;;11.82;5.07;;;;;;;;;;4987388;28;20026;-73
2022/05/20 09:59:17;;;;;;;10.70;4.43;;;;;;;;;;4971511;28;20034;-74
2022/05/20 10:02:03;;;;;;;9.48;5.38;;;;;;;;;;4932578;28;21142;-75
2022/05/20 10:04:52;;;;;;;12.48;5.75;;;;;;;;;;4985862;28;21221;-76
2022/05/20 10:07:29;;;;;;;11.27;6.50;;;;;;;;;;4984102;28;20501;-75
2022/05/20 10:10:01;;;;;;;13.77;6.68;;;;;;;;;;4948880;28;20045;-76
2022/05/20 10:12:28;;;;;;;10.80;7.35;;;;;;;;;;4970533;28;20104;-76
2022/05/20 10:14:57;;;;;;;10.25;7.05;;;;;;;;;;4966753;28;20049;-75
2022/05/20 10:17:41;;;;;;;12.45;7.43;;;;;;;;;;4961115;28;20045;-73
2022/05/20 10:20:30;;;;;;;10.85;6.40;;;;;;;;;;4972917;28;20073;-75
2022/05/20 10:23:05;;;;;;;8.25;6.18;;;;;;;;;;4971604;28;20057;-72
2022/05/20 10:25:35;;;;;;;11.68;7.00;;;;;;;;;;4972493;28;20072;-75
2022/05/20 10:32:34;;;;;;;12.57;7.60;;;;;;;;;;4966209;28;20498;-73
2022/05/20 10:33:53;;;;;;;16.20;7.72;;;;;;;;;;4987869;28;20057;-72
2022/05/20 10:36:29;;;;;;;15.27;7.70;;;;;;;;;;4989668;28;20561;-75
2022/05/20 10:38:55;;;;;;;13.52;7.70;;;;;;;;;;4987323;28;20319;-71
2022/05/20 10:41:23;;;;;;;13.23;7.78;;;;;;;;;;4989796;28;20072;-73
2022/05/20 10:49:59;;;;;;;11.60;7.38;;;;;;;;;;4988113;28;20895;-76
2022/05/20 10:52:24;;;;;;;17.75;6.95;;;;;;;;;;4992230;28;20091;-75
2022/05/20 10:54:59;;;;;;;10.70;7.60;;;;;;;;;;4987537;28;20156;-75
2022/05/20 10:57:33;;;;;;;10.23;7.68;;;;;;;;;;4996221;28;21763;-74
2022/05/20 11:00:08;;;;;;;10.10;6.80;;;;;;;;;;4990149;28;20044;-77
2022/05/20 11:02:52;;;;;;;10.40;7.25;;;;;;;;;;4980881;28;20148;-72
2022/05/20 11:05:20;;;;;;;12.38;7.50;;;;;;;;;;4969420;28;20577;-74
2022/05/20 11:08:15;;;;;;;11.93;6.95;;;;;;;;;;4970634;28;20121;-73
2022/05/20 11:10:43;;;;;;;12.20;8.55;;;;;;;;;;4976951;28;20041;-74
2022/05/20 11:13:27;;;;;;;8.90;7.90;;;;;;;;;;4981595;28;20033;-75
2022/05/20 11:15:53;;;;;;;13.27;7.93;;;;;;;;;;5002166;28;20034;-76
2022/05/20 11:18:18;;;;;;;13.77;8.18;;;;;;;;;;5001148;28;20044;-74
2022/05/20 11:20:58;;;;;;;11.05;7.28;;;;;;;;;;4974536;28;20030;-75
2022/05/20 11:23:35;;;;;;;9.85;6.72;;;;;;;;;;4960011;28;20150;-75
2022/05/20 11:26:19;;;;;;;11.00;6.35;;;;;;;;;;4978386;28;20117;-76
2022/05/20 11:28:50;;;;;;;10.50;6.63;;;;;;;;;;4969290;28;20050;-75
2022/05/20 11:31:19;;;;;;;11.38;6.38;;;;;;;;;;4974488;28;20033;-74
2022/05/20 11:33:46;;;;;;;10.15;6.63;;;;;;;;;;4970875;28;20026;-74
2022/05/20 11:36:28;;;;;;;9.25;6.65;;;;;;;;;;4977611;28;20087;-73
2022/05/20 11:39:08;;;;;;;12.40;7.50;;;;;;;;;;4972043;28;20030;-73
2022/05/20 11:41:33;;;;;;;11.45;8.02;;;;;;;;;;4968851;28;20798;-74
2022/05/20 11:44:18;;;;;;;13.40;8.38;;;;;;;;;;4971841;28;20037;-75
2022/05/20 11:46:51;;;;;;;13.70;8.70;;;;;;;;;;4969936;28;20042;-77
2022/05/20 11:49:25;;;;;;;14.38;9.57;;;;;;;;;;4973698;28;20064;-73
2022/05/20 11:52:09;;;;;;;14.60;10.27;;;;;;;;;;4977062;28;20145;-73
2022/05/20 11:54:34;;;;;;;17.73;11.00;;;;;;;;;;4971209;28;20096;-73
2022/05/20 11:57:20;;;;;;;16.33;10.70;;;;;;;;;;4968802;28;20041;-74
2022/05/20 11:59:48;;;;;;;15.05;12.13;;;;;;;;;;4965665;28;20084;-73
2022/05/20 12:02:14;;;;;;;20.73;11.48;;;;;;;;;;4970854;28;20037;-74
2022/05/20 12:04:40;;;;;;;17.48;12.68;;;;;;;;;;4979127;28;20897;-74
2022/05/20 12:07:07;;;;;;;18.52;13.57;;;;;;;;;;4974473;28;20916;-75
2022/05/20 12:09:32;;;;;;;18.50;14.60;;;;;;;;;;4974125;28;20096;-75
2022/05/20 12:12:11;;;;;;;19.58;15.35;;;;;;;;;;4981035;28;20729;-75
2022/05/20 12:14:54;;;;;;;20.92;16.45;;;;;;;;;;4995091;28;20037;-76
2022/05/20 12:17:42;;;;;;;24.55;17.23;;;;;;;;;;4994511;28;21906;-75
2022/05/20 12:26:07;;;;;;;25.65;18.55;;;;;;;;;;4970602;28;20060;-72
2022/05/20 12:28:35;;;;;;;28.02;19.70;;;;;;;;;;4980162;28;20077;-72
2022/05/20 12:31:04;;;;;;;29.45;21.15;;;;;;;;;;4997108;28;20022;-66
2022/05/20 12:33:47;;;;;;;34.60;23.85;;;;;;;;;;4967993;28;20107;-64
2022/05/20 12:36:12;;;;;;;35.55;25.08;;;;;;;;;;4971228;28;20141;-66
2022/05/20 12:38:38;;;;;;;40.08;25.73;;;;;;;;;;4970394;28;20043;-66
2022/05/20 12:41:15;;;;;;;37.63;25.60;;;;;;;;;;4971292;28;20034;-68
2022/05/20 12:43:42;;;;;;;35.95;26.17;;;;;;;;;;4970633;28;20030;-67
2022/05/20 12:46:11;;;;;;;42.28;28.08;;;;;;;;;;4965914;28;20037;-66
2022/05/20 12:48:36;;;;;;;40.30;28.35;;;;;;;;;;4968771;28;20045;-66
2022/05/20 12:51:08;;;;;;;46.03;30.40;;;;;;;;;;4947979;28;20570;-67
2022/05/20 12:53:35;;;;;;;48.70;30.45;;;;;;;;;;4967306;28;20109;-68
2022/05/20 12:56:00;;;;;;;48.00;26.75;;;;;;;;;;4967331;28;20030;-66
2022/05/20 12:58:29;;;;;;;41.22;25.58;;;;;;;;;;4965695;28;20034;-66
2022/05/20 13:00:55;;;;;;;42.03;29.30;;;;;;;;;;4965327;28;20046;-66
2022/05/20 13:03:24;;;;;;;42.75;30.08;;;;;;;;;;4964745;28;20133;-66
2022/05/20 13:05:55;;;;;;;45.55;29.30;;;;;;;;;;4961342;28;20044;-66
2022/05/20 13:08:22;;;;;;;42.07;29.03;;;;;;;;;;4965194;28;20038;-68
2022/05/20 13:10:47;;;;;;;42.97;27.73;;;;;;;;;;4970303;28;20057;-67
2022/05/20 13:13:17;;;;;;;36.65;24.73;;;;;;;;;;4969328;28;20103;-67
2022/05/20 13:15:44;;;;;;;36.05;22.95;;;;;;;;;;4966890;28;20049;-67
2022/05/20 13:18:17;;;;;;;32.70;21.70;;;;;;;;;;4945755;28;20034;-67
2022/05/20 13:20:45;;;;;;;34.42;20.67;;;;;;;;;;4966360;28;20038;-69
2022/05/20 13:23:17;;;;;;;30.42;18.42;;;;;;;;;;4962891;28;20072;-67
2022/05/20 13:25:42;;;;;;;;;;;;;;;;;;4968062;28;20955;-65
2022/05/20 13:28:08;;;;;;;18.70;9.25;;;;;;;;;;4970314;28;19922;-67
2022/05/20 13:30:35;;;;;;;18.45;10.05;;;;;;;;;;4964676;28;20963;-68
2022/05/20 13:33:07;;;;;;;25.08;9.35;;;;;;;;;;4969386;28;20132;-68
2022/05/20 13:35:52;;;;;;;21.42;9.45;;;;;;;;;;4971296;28;20041;-69
2022/05/20 13:38:18;;;;;;;12.50;7.05;;;;;;;;;;4966754;28;22295;-70
2022/05/20 13:40:43;;;;;;;17.20;6.75;;;;;;;;;;4970853;28;20033;-68
2022/05/20 13:43:13;;;;;;;13.93;6.43;;;;;;;;;;4967170;28;20799;-68
2022/05/20 13:51:26;;;;;;;11.77;6.60;;;;;;;;;;4970046;28;20061;-71
2022/05/20 13:53:52;;;;;;;11.25;6.10;;;;;;;;;;4988029;28;20961;-71
2022/05/20 13:56:29;;;;;;;15.50;7.38;;;;;;;;;;5000893;28;20052;-69
2022/05/20 13:58:55;;;;;;;17.73;7.32;;;;;;;;;;4983119;28;20189;-68
2022/05/20 14:01:20;;;;;;;18.27;7.35;;;;;;;;;;4989174;28;20927;-72
2022/05/20 14:03:47;;;;;;;13.65;8.52;;;;;;;;;;4982349;28;20072;-72
2022/05/20 14:06:14;;;;;;;22.67;8.68;;;;;;;;;;4997550;28;20026;-71
2022/05/20 14:08:42;;;;;;;20.83;8.07;;;;;;;;;;4986915;28;20033;-72
2022/05/20 14:11:14;;;;;;;18.40;7.75;;;;;;;;;;4993183;28;20815;-72
2022/05/20 14:13:40;;;;;;;14.02;7.85;;;;;;;;;;4991795;28;20034;-71
2022/05/20 14:16:27;;;;;;;19.85;8.68;;;;;;;;;;4987592;28;20029;-72
2022/05/20 14:18:57;;;;;;;17.88;8.38;;;;;;;;;;4989625;28;20049;-71
2022/05/20 14:21:28;;;;;;;21.05;8.30;;;;;;;;;;4990061;28;20060;-70
2022/05/20 14:23:59;;;;;;;22.33;9.10;;;;;;;;;;4987881;28;22126;-70
2022/05/20 14:26:27;;;;;;;15.38;7.47;;;;;;;;;;4988812;28;21907;-69
2022/05/20 14:28:57;;;;;;;17.10;7.38;;;;;;;;;;4990309;28;20052;-72
2022/05/20 14:31:22;;;;;;;18.45;9.43;;;;;;;;;;4987998;28;20034;-71
2022/05/20 14:33:49;;;;;;;21.60;12.40;;;;;;;;;;5004075;28;20048;-71
2022/05/20 14:36:15;;;;;;;30.77;14.98;;;;;;;;;;4987348;28;20034;-71
2022/05/20 14:38:43;;;;;;;22.27;13.88;;;;;;;;;;4970073;28;20072;-73
2022/05/20 14:41:15;;;;;;;30.58;15.40;;;;;;;;;;4982020;28;20026;-71
2022/05/20 14:43:52;;;;;;;29.45;17.80;;;;;;;;;;4970462;28;20056;-71
2022/05/20 14:49:43;;;;;;;50.42;25.88;;;;;;;;;;4971292;28;20589;-71
2022/05/20 14:52:09;;;;;;;85.13;42.78;;;;;;;;;;4969369;28;20305;-73
2022/05/20 14:54:41;;;;;;;85.47;47.88;;;;;;;;;;4974280;28;20110;-72
2022/05/20 14:57:35;;;;;;;84.90;49.70;;;;;;;;;;4966685;28;20115;-70
2022/05/20 15:00:20;;;;;;;80.20;44.92;;;;;;;;;;4955928;28;20107;-72
2022/05/20 15:02:45;;;;;;;76.15;43.97;;;;;;;;;;4970753;28;20049;-72
2022/05/20 15:05:11;;;;;;;63.35;37.35;;;;;;;;;;4969551;28;20029;-70
2022/05/20 15:07:37;;;;;;;73.32;41.97;;;;;;;;;;4952991;28;20038;-70
2022/05/20 15:10:14;;;;;;;75.25;39.47;;;;;;;;;;4965115;28;20048;-71
2022/05/20 15:12:39;;;;;;;67.60;32.28;;;;;;;;;;4968097;28;20041;-69
2022/05/20 15:15:07;;;;;;;66.80;30.48;;;;;;;;;;4957008;28;20900;-71
2022/05/20 15:17:34;;;;;;;63.55;28.65;;;;;;;;;;4966470;28;20037;-70
2022/05/20 15:20:00;;;;;;;67.70;28.58;;;;;;;;;;4963984;28;20049;-71